createdAt,value
2023-12-23T07:58:50.047Z,8.18
2023-12-23T08:00:53.083Z,8.20
2023-12-23T08:02:56.013Z,8.15
2023-12-23T08:04:59.613Z,8.25
2023-12-23T08:07:02.591Z,7.05
2023-12-23T08:09:05.696Z,13.38
2023-12-23T08:11:08.792Z,7.30
2023-12-23T08:13:11.608Z,8.30
2023-12-23T08:15:14.501Z,10.80
2023-12-23T08:17:17.328Z,11.25
2023-12-23T08:19:22.196Z,7.43
2023-12-23T08:21:25.468Z,10.18
2023-12-23T08:23:28.400Z,9.45
2023-12-23T08:25:31.195Z,9.63
2023-12-23T08:27:34.096Z,7.10
2023-12-23T08:29:37.013Z,8.73
2023-12-23T08:31:46.546Z,6.47
2023-12-23T08:33:50.023Z,7.32
2023-12-23T08:35:53.019Z,6.97
2023-12-23T08:37:55.826Z,8.38
2023-12-23T08:39:58.682Z,7.88
2023-12-23T08:42:01.474Z,8.10
2023-12-23T08:44:04.971Z,7.55
2023-12-23T08:46:07.841Z,7.55
2023-12-23T08:48:10.693Z,8.48
2023-12-23T08:50:13.613Z,10.25
2023-12-23T08:52:16.577Z,9.65
2023-12-23T08:54:19.367Z,10.85
2023-12-23T08:56:22.150Z,19.90
2023-12-23T08:58:26.544Z,14.77
2023-12-23T09:00:29.530Z,23.88
2023-12-23T09:02:32.586Z,13.32
2023-12-23T09:04:35.659Z,19.33
2023-12-23T09:06:38.534Z,12.98
2023-12-23T09:08:41.432Z,18.90
2023-12-23T09:10:44.357Z,19.77
2023-12-23T09:12:47.333Z,26.70
2023-12-23T09:14:53.077Z,25.35
2023-12-23T09:16:55.888Z,17.40
2023-12-23T09:18:58.770Z,19.95
2023-12-23T09:21:01.789Z,11.48
2023-12-23T09:23:04.679Z,12.07
2023-12-23T09:25:07.746Z,10.80
2023-12-23T09:27:10.500Z,6.68
2023-12-23T09:29:13.410Z,8.77
2023-12-23T09:31:16.264Z,8.70
2023-12-23T09:33:19.108Z,8.82
2023-12-23T09:35:22.071Z,8.70
2023-12-23T09:37:24.974Z,6.72
2023-12-23T09:39:27.818Z,6.03
2023-12-23T09:41:30.805Z,6.38
2023-12-23T09:43:34.333Z,6.10
2023-12-23T09:45:38.933Z,5.68
2023-12-23T09:47:41.937Z,6.57
2023-12-23T09:49:44.935Z,6.50
2023-12-23T09:51:48.899Z,5.60
2023-12-23T09:53:57.446Z,6.53
2023-12-23T09:56:00.348Z,6.43
2023-12-23T09:58:03.368Z,5.80
2023-12-23T10:00:06.971Z,6.85
2023-12-23T10:02:09.936Z,5.38
2023-12-23T10:04:12.976Z,6.60
2023-12-23T10:06:20.036Z,6.10
2023-12-23T10:08:24.852Z,6.07
2023-12-23T10:10:27.899Z,6.80
2023-12-23T10:12:30.686Z,6.18
2023-12-23T10:14:33.585Z,8.50
2023-12-23T10:16:38.676Z,7.13
2023-12-23T10:18:43.250Z,6.95
2023-12-23T10:20:46.877Z,6.70
2023-12-23T10:22:50.488Z,6.90
2023-12-23T10:24:53.469Z,6.50
2023-12-23T10:26:57.972Z,9.70
2023-12-23T10:29:05.669Z,24.70
2023-12-23T10:31:13.044Z,6.63
2023-12-23T10:33:18.005Z,8.68
2023-12-23T10:35:21.696Z,6.80
2023-12-23T10:37:26.347Z,6.95
2023-12-23T10:39:38.715Z,7.75
2023-12-23T10:41:51.667Z,8.07
2023-12-23T10:43:56.040Z,7.32
2023-12-23T10:46:00.631Z,9.35
2023-12-23T10:48:05.727Z,10.50
2023-12-23T10:50:10.817Z,8.20
2023-12-23T10:52:15.533Z,9.35
2023-12-23T10:54:19.768Z,9.70
2023-12-23T10:56:24.007Z,9.43
2023-12-23T10:58:28.370Z,9.43
2023-12-23T11:00:31.763Z,9.68
2023-12-23T11:02:36.600Z,10.60
2023-12-23T11:04:42.981Z,9.50
2023-12-23T11:06:48.107Z,10.85
2023-12-23T11:08:52.851Z,10.30
2023-12-23T11:10:56.175Z,10.80
2023-12-23T11:13:01.313Z,12.13
2023-12-23T11:15:05.706Z,12.70
2023-12-23T11:17:31.986Z,15.38
2023-12-23T11:19:59.297Z,13.50
2023-12-23T11:22:30.190Z,17.08
2023-12-23T11:24:52.575Z,14.23
2023-12-23T11:26:55.631Z,14.55
2023-12-23T11:28:58.514Z,14.02
2023-12-23T11:31:02.554Z,14.48
2023-12-23T11:33:05.878Z,14.98
2023-12-23T11:35:13.919Z,16.55
2023-12-23T11:37:17.192Z,15.15
2023-12-23T11:39:19.995Z,15.50
2023-12-23T11:41:23.395Z,15.55
2023-12-23T11:43:26.377Z,15.07
2023-12-23T11:45:29.722Z,14.40
2023-12-23T11:47:32.602Z,15.32
2023-12-23T11:49:35.842Z,17.10
2023-12-23T11:51:40.432Z,16.60
2023-12-23T11:53:44.832Z,14.07
2023-12-23T11:55:48.761Z,14.02
2023-12-23T11:57:51.765Z,14.10
2023-12-23T11:59:56.746Z,13.90
2023-12-23T12:01:59.529Z,12.70
2023-12-23T12:04:02.622Z,13.02
2023-12-23T12:06:05.771Z,14.43
2023-12-23T12:08:08.686Z,13.77
2023-12-23T12:10:15.184Z,15.40
2023-12-23T12:12:18.783Z,14.82
2023-12-23T12:14:21.555Z,15.90
2023-12-23T12:16:24.475Z,14.32
2023-12-23T12:18:27.440Z,14.55
2023-12-23T12:20:30.489Z,14.20
2023-12-23T12:22:33.388Z,15.95
2023-12-23T12:24:36.095Z,13.70
2023-12-23T12:26:38.997Z,15.63
2023-12-23T12:28:43.671Z,14.30
2023-12-23T12:30:48.603Z,13.60
2023-12-23T12:32:53.533Z,13.45
2023-12-23T12:35:07.855Z,17.25
2023-12-23T12:37:11.868Z,15.23
2023-12-23T12:39:21.297Z,17.45
2023-12-23T12:41:29.543Z,20.52
2023-12-23T12:43:36.917Z,19.38
2023-12-23T12:45:43.390Z,15.43
2023-12-23T12:47:51.171Z,13.90
2023-12-23T12:50:07.770Z,15.07
2023-12-23T12:52:13.290Z,12.18
2023-12-23T12:54:16.882Z,13.43
2023-12-23T12:56:23.163Z,14.75
2023-12-23T12:58:26.380Z,11.13
2023-12-23T13:00:29.181Z,12.32
2023-12-23T13:02:32.237Z,12.07
2023-12-23T13:04:37.405Z,11.65
2023-12-23T13:06:41.641Z,12.60
2023-12-23T13:08:44.539Z,9.70
2023-12-23T13:10:48.369Z,10.30
2023-12-23T13:12:51.718Z,10.93
2023-12-23T13:14:54.740Z,11.55
2023-12-23T13:16:57.625Z,10.25
2023-12-23T13:19:01.493Z,11.93
2023-12-23T13:21:04.540Z,12.20
2023-12-23T13:23:07.318Z,11.38
2023-12-23T13:25:11.095Z,10.93
2023-12-23T13:27:14.131Z,11.88
2023-12-23T13:29:18.287Z,9.30
2023-12-23T13:31:22.144Z,10.80
2023-12-23T13:33:25.145Z,8.52
2023-12-23T13:35:28.964Z,8.55
2023-12-23T13:37:32.632Z,8.95
2023-12-23T13:39:35.651Z,10.00
2023-12-23T13:41:38.484Z,8.13
2023-12-23T13:43:41.354Z,7.72
2023-12-23T13:45:44.428Z,8.60
2023-12-23T13:47:47.711Z,7.57
2023-12-23T13:49:51.237Z,7.43
2023-12-23T13:51:54.193Z,7.80
2023-12-23T13:53:57.046Z,8.70
2023-12-23T13:55:59.960Z,8.10
2023-12-23T13:58:03.228Z,8.50
2023-12-23T14:00:06.703Z,8.90
2023-12-23T14:02:09.938Z,5.95
2023-12-23T14:04:12.799Z,7.82
2023-12-23T14:06:15.722Z,6.43
2023-12-23T14:08:18.543Z,7.30
2023-12-23T14:10:21.375Z,6.88
2023-12-23T14:12:24.967Z,7.35
2023-12-23T14:14:27.831Z,7.43
2023-12-23T14:16:32.178Z,6.95
2023-12-23T14:18:35.094Z,6.28
2023-12-23T14:20:38.072Z,6.75
2023-12-23T14:22:40.895Z,7.70
2023-12-23T14:24:43.966Z,6.88
2023-12-23T14:26:46.794Z,5.90
2023-12-23T14:28:49.700Z,6.53
2023-12-23T14:30:52.764Z,6.88
2023-12-23T14:32:55.690Z,6.63
2023-12-23T14:34:58.787Z,9.23
2023-12-23T14:37:01.617Z,6.70
2023-12-23T14:39:04.407Z,6.97
2023-12-23T14:41:07.389Z,7.50
2023-12-23T14:43:10.134Z,7.25
2023-12-23T14:45:13.229Z,6.22
2023-12-23T14:47:16.321Z,6.25
2023-12-23T14:49:19.281Z,6.68
2023-12-23T14:51:24.647Z,6.93
2023-12-23T14:53:29.369Z,6.65
2023-12-23T14:55:32.177Z,6.95
2023-12-23T14:57:35.040Z,6.82
2023-12-23T14:59:37.923Z,6.68
2023-12-23T15:01:40.750Z,7.18
2023-12-23T15:03:43.662Z,7.32
2023-12-23T15:05:46.557Z,6.45
2023-12-23T15:07:49.445Z,8.02
2023-12-23T15:09:52.608Z,7.22
2023-12-23T15:11:55.464Z,7.15
2023-12-23T15:13:58.300Z,6.82
2023-12-23T15:16:01.184Z,6.70
2023-12-23T15:18:04.478Z,6.88
2023-12-23T15:20:08.230Z,7.60
2023-12-23T15:22:11.150Z,6.28
2023-12-23T15:24:13.938Z,5.70
2023-12-23T15:26:17.056Z,5.88
2023-12-23T15:28:20.053Z,6.10
2023-12-23T15:30:22.793Z,6.50
2023-12-23T15:32:25.911Z,6.15
2023-12-23T15:34:28.954Z,6.20
2023-12-23T15:36:31.996Z,6.80
2023-12-23T15:38:35.117Z,7.30
2023-12-23T15:40:38.503Z,6.05
2023-12-23T15:42:41.390Z,6.95
2023-12-23T15:44:44.494Z,7.68
2023-12-23T15:46:47.499Z,6.50
2023-12-23T15:48:50.406Z,6.32
2023-12-23T15:50:53.171Z,6.75
2023-12-23T15:52:56.075Z,6.85
2023-12-23T15:54:59.195Z,5.88
2023-12-23T15:57:05.729Z,6.97
2023-12-23T15:59:08.598Z,5.93
2023-12-23T16:01:13.210Z,5.43
2023-12-23T16:03:16.090Z,5.63
2023-12-23T16:05:19.041Z,5.65
2023-12-23T16:07:21.968Z,4.72
2023-12-23T16:09:24.694Z,5.18
2023-12-23T16:11:27.527Z,4.55
2023-12-23T16:13:30.616Z,4.97
2023-12-23T16:15:34.025Z,5.28
2023-12-23T16:17:37.001Z,5.53
2023-12-23T16:19:39.925Z,5.20
2023-12-23T16:21:43.095Z,4.40
2023-12-23T16:23:47.144Z,5.75
2023-12-23T16:25:50.015Z,5.40
2023-12-23T16:27:52.879Z,5.10
2023-12-23T16:29:55.619Z,4.38
2023-12-23T16:32:01.431Z,4.57
2023-12-23T16:34:06.006Z,5.60
2023-12-23T16:36:11.796Z,5.28
2023-12-23T16:38:14.691Z,5.25
2023-12-23T16:40:17.575Z,4.55
2023-12-23T16:42:22.150Z,5.18
2023-12-23T16:44:25.139Z,5.82
2023-12-23T16:46:28.842Z,4.80
2023-12-23T16:48:31.840Z,15.63
2023-12-23T16:50:35.307Z,8.13
2023-12-23T16:52:38.553Z,4.63
2023-12-23T16:54:41.249Z,6.05
2023-12-23T16:56:44.118Z,4.68
2023-12-23T16:58:48.519Z,6.00
2023-12-23T17:00:52.048Z,7.97
2023-12-23T17:02:55.287Z,5.38
2023-12-23T17:04:58.450Z,3.75
2023-12-23T17:07:01.309Z,4.90
2023-12-23T17:09:05.817Z,4.13
2023-12-23T17:11:08.624Z,5.90
2023-12-23T17:13:11.501Z,5.15
2023-12-23T17:15:14.257Z,5.05
2023-12-23T17:17:17.388Z,4.28
2023-12-23T17:19:20.368Z,4.80
2023-12-23T17:21:23.269Z,5.45
2023-12-23T17:23:27.370Z,4.88
2023-12-23T17:25:30.144Z,3.63
2023-12-23T17:27:32.857Z,5.32
2023-12-23T17:29:36.213Z,4.93
2023-12-23T17:31:38.995Z,4.35
2023-12-23T17:33:42.071Z,4.63
2023-12-23T17:35:45.055Z,4.35
2023-12-23T17:37:49.586Z,5.43
2023-12-23T17:39:53.025Z,5.60
2023-12-23T17:41:55.892Z,5.50
2023-12-23T17:43:58.607Z,4.60
2023-12-23T17:46:01.362Z,4.75
2023-12-23T17:48:05.323Z,5.22
2023-12-23T17:50:09.804Z,4.85
2023-12-23T17:52:12.817Z,5.60
2023-12-23T17:54:16.072Z,4.68
2023-12-23T17:56:21.834Z,5.22
2023-12-23T17:58:24.821Z,5.47
2023-12-23T18:00:27.772Z,4.28
2023-12-23T18:02:30.581Z,4.78
2023-12-23T18:04:33.582Z,4.85
2023-12-23T18:06:36.427Z,6.40
2023-12-23T18:08:39.222Z,6.63
2023-12-23T18:10:42.096Z,4.90
2023-12-23T18:12:44.928Z,5.38
2023-12-23T18:14:47.667Z,6.03
2023-12-23T18:16:50.391Z,5.32
2023-12-23T18:18:53.357Z,6.07
2023-12-23T18:20:56.107Z,4.50
2023-12-23T18:22:59.058Z,4.63
2023-12-23T18:25:01.903Z,6.65
2023-12-23T18:27:06.767Z,5.38
2023-12-23T18:29:09.557Z,4.75
2023-12-23T18:31:12.393Z,5.05
2023-12-23T18:33:17.126Z,4.57
2023-12-23T18:35:20.281Z,6.25
2023-12-23T18:37:25.100Z,5.95
2023-12-23T18:39:32.067Z,4.43
2023-12-23T18:41:36.314Z,5.38
2023-12-23T18:43:39.776Z,4.57
2023-12-23T18:45:42.578Z,5.60
2023-12-23T18:47:47.977Z,4.65
2023-12-23T18:49:51.153Z,4.43
2023-12-23T18:51:54.446Z,4.75
2023-12-23T18:53:57.500Z,5.78
2023-12-23T18:56:00.495Z,4.80
2023-12-23T18:58:03.724Z,5.55
2023-12-23T19:00:07.617Z,4.80
2023-12-23T19:02:12.271Z,4.88
2023-12-23T19:04:15.279Z,4.85
2023-12-23T19:06:18.159Z,6.32
2023-12-23T19:08:21.059Z,9.07
2023-12-23T19:10:24.478Z,5.20
2023-12-23T19:12:27.504Z,6.10
2023-12-23T19:14:30.398Z,5.80
2023-12-23T19:16:34.080Z,5.50
2023-12-23T19:18:37.293Z,6.15
2023-12-23T19:20:40.389Z,6.97
2023-12-23T19:22:44.833Z,7.53
2023-12-23T19:24:47.537Z,6.70
2023-12-23T19:26:51.631Z,6.53
2023-12-23T19:28:54.890Z,7.65
2023-12-23T19:30:58.604Z,7.15
2023-12-23T19:33:01.671Z,8.00
2023-12-23T19:35:04.836Z,6.82
2023-12-23T19:37:07.734Z,7.93
2023-12-23T19:39:11.132Z,7.97
2023-12-23T19:41:14.659Z,6.07
2023-12-23T19:43:19.923Z,6.97
2023-12-23T19:45:23.876Z,7.60
2023-12-23T19:47:27.239Z,6.85
2023-12-23T19:49:30.274Z,7.55
2023-12-23T19:51:34.941Z,7.00
2023-12-23T19:53:37.837Z,6.30
2023-12-23T19:55:40.845Z,7.85
2023-12-23T19:57:43.611Z,6.47
2023-12-23T19:59:46.363Z,8.25
2023-12-23T20:01:49.225Z,7.40
2023-12-23T20:03:54.476Z,6.93
2023-12-23T20:05:57.335Z,6.55
2023-12-23T20:08:00.209Z,7.22
2023-12-23T20:10:03.869Z,7.65
2023-12-23T20:12:10.609Z,7.07
2023-12-23T20:14:13.627Z,7.57
2023-12-23T20:16:29.216Z,6.72
2023-12-23T20:18:33.130Z,9.55
2023-12-23T20:20:36.084Z,7.80
2023-12-23T20:22:40.079Z,6.63
2023-12-23T20:24:42.788Z,6.60
2023-12-23T20:26:45.695Z,6.38
2023-12-23T20:28:48.696Z,6.70
2023-12-23T20:30:51.491Z,6.53
2023-12-23T20:32:54.593Z,8.90
2023-12-23T20:34:57.531Z,6.93
2023-12-23T20:37:02.608Z,8.88
2023-12-23T20:39:06.276Z,7.75
2023-12-23T20:41:10.850Z,12.18
2023-12-23T20:43:13.965Z,17.55
2023-12-23T20:45:16.920Z,27.42
2023-12-23T20:47:19.898Z,17.40
2023-12-23T20:49:23.032Z,14.60
2023-12-23T20:51:25.940Z,10.65
2023-12-23T20:53:29.361Z,28.85
2023-12-23T20:55:32.552Z,22.60
2023-12-23T20:57:35.451Z,23.42
2023-12-23T20:59:38.793Z,13.88
2023-12-23T21:01:41.758Z,14.35
2023-12-23T21:03:44.710Z,8.93
2023-12-23T21:05:47.826Z,8.60
2023-12-23T21:07:51.484Z,7.90
2023-12-23T21:09:56.479Z,6.88
2023-12-23T21:11:59.338Z,7.60
2023-12-23T21:14:02.300Z,9.45
2023-12-23T21:16:05.473Z,7.78
2023-12-23T21:18:08.404Z,7.13
2023-12-23T21:20:11.537Z,7.75
2023-12-23T21:22:14.555Z,6.88
2023-12-23T21:24:17.329Z,7.30
2023-12-23T21:26:24.367Z,7.32
2023-12-23T21:28:27.569Z,6.53
2023-12-23T21:30:31.891Z,6.82
2023-12-23T21:32:35.146Z,6.43
2023-12-23T21:34:38.155Z,6.88
2023-12-23T21:36:41.102Z,6.57
2023-12-23T21:38:43.889Z,6.30
2023-12-23T21:40:47.521Z,7.22
2023-12-23T21:42:50.936Z,6.45
2023-12-23T21:44:53.950Z,7.03
2023-12-23T21:46:56.923Z,6.68
2023-12-23T21:49:00.630Z,6.45
2023-12-23T21:51:04.302Z,6.47
2023-12-23T21:53:07.244Z,6.72
2023-12-23T21:55:10.272Z,8.20
2023-12-23T21:57:13.111Z,7.18
2023-12-23T21:59:16.058Z,7.20
2023-12-23T22:01:19.115Z,7.93
2023-12-23T22:03:21.906Z,7.97
2023-12-23T22:05:24.965Z,7.28
2023-12-23T22:07:28.029Z,6.57
2023-12-23T22:09:31.341Z,7.97
2023-12-23T22:11:34.395Z,6.30
2023-12-23T22:13:37.362Z,6.60
2023-12-23T22:15:40.198Z,8.00
2023-12-23T22:17:43.483Z,6.88
2023-12-23T22:19:47.769Z,6.38
2023-12-23T22:21:51.628Z,7.40
2023-12-23T22:23:54.557Z,6.80
2023-12-23T22:25:57.453Z,6.93
2023-12-23T22:28:00.316Z,6.68
2023-12-23T22:30:03.189Z,6.88
2023-12-23T22:32:08.322Z,6.22
2023-12-23T22:34:11.795Z,6.45
2023-12-23T22:36:14.583Z,7.25
2023-12-23T22:38:17.354Z,6.75
2023-12-23T22:40:21.000Z,7.32
2023-12-23T22:42:24.017Z,6.35
2023-12-23T22:44:26.887Z,6.28
2023-12-23T22:46:29.763Z,6.45
2023-12-23T22:48:32.622Z,6.93
2023-12-23T22:50:35.530Z,6.95
2023-12-23T22:52:38.353Z,6.13
2023-12-23T22:54:41.134Z,6.20
2023-12-23T22:56:44.024Z,6.55
2023-12-23T22:58:47.345Z,5.15
2023-12-23T23:00:50.152Z,5.28
2023-12-23T23:02:53.408Z,5.55
2023-12-23T23:04:56.702Z,7.40
2023-12-23T23:06:59.608Z,5.53
2023-12-23T23:09:02.329Z,6.35
2023-12-23T23:11:05.468Z,5.85
2023-12-23T23:13:08.454Z,4.68
2023-12-23T23:15:11.316Z,6.53
2023-12-23T23:17:14.478Z,6.20
2023-12-23T23:19:17.492Z,7.35
2023-12-23T23:21:21.477Z,5.03
2023-12-23T23:23:25.309Z,4.78
2023-12-23T23:25:28.154Z,6.80
2023-12-23T23:27:30.909Z,4.85
2023-12-23T23:29:33.930Z,6.35
2023-12-23T23:31:36.796Z,6.22
2023-12-23T23:33:39.729Z,5.60
2023-12-23T23:35:42.713Z,5.03
2023-12-23T23:37:45.613Z,6.38
2023-12-23T23:39:48.344Z,5.07
2023-12-23T23:41:51.113Z,6.05
2023-12-23T23:43:53.917Z,7.13
2023-12-23T23:45:56.899Z,6.30
2023-12-23T23:47:59.658Z,5.72
2023-12-23T23:50:06.018Z,6.20
2023-12-23T23:52:10.991Z,5.38
2023-12-23T23:54:13.769Z,6.28
2023-12-23T23:56:20.326Z,6.63
2023-12-23T23:58:24.131Z,6.85
